Time;durP1;ratioP1;P1;durP2;ratioP2;P2;SDS_P1;SDS_P2;PMS_P1;PMS_P2;Temp;Humidity;BMP_temperature;BMP_pressure;BME280_temperature;BME280_humidity;BME280_pressure;Samples;Min_cycle;Max_cycle;Signal;HPM_P1;HPM_P2
2023/01/14 00:01:34;;;;;;;1.30;1.08;;;21.90;62.30;;;;;;5030349;28;20022;-74
2023/01/14 00:04:00;;;;;;;1.33;1.00;;;21.90;62.20;;;;;;5031209;28;20050;-70
2023/01/14 00:06:28;;;;;;;1.00;1.00;;;22.00;62.20;;;;;;5032656;28;20531;-76
2023/01/14 00:08:54;;;;;;;1.63;1.23;;;22.00;62.70;;;;;;5023390;28;20040;-76
2023/01/14 00:11:45;;;;;;;2.35;1.10;;;22.00;62.20;;;;;;5012460;28;20014;-77
2023/01/14 00:14:06;;;;;;;1.58;1.00;;;22.00;62.20;;;;;;5012691;28;20030;-76
2023/01/14 00:16:31;;;;;;;1.05;0.93;;;22.00;62.50;;;;;;5015255;28;20445;-77
2023/01/14 00:18:58;;;;;;;1.45;1.10;;;22.00;62.70;;;;;;5031649;28;20074;-77
2023/01/14 00:21:25;;;;;;;1.67;1.05;;;22.00;62.70;;;;;;5033246;28;20044;-76
2023/01/14 00:23:53;;;;;;;2.00;1.00;;;22.00;62.70;;;;;;5032194;28;20033;-76
2023/01/14 00:26:20;;;;;;;0.93;0.88;;;22.00;62.70;;;;;;5032391;28;20025;-77
2023/01/14 00:28:49;;;;;;;1.30;1.13;;;22.00;63.10;;;;;;5033644;28;20068;-78
2023/01/14 00:31:24;;;;;;;2.00;1.38;;;22.00;62.90;;;;;;5033286;28;20018;-79
2023/01/14 00:33:50;;;;;;;1.85;1.20;;;22.00;62.90;;;;;;5031905;28;20458;-73
2023/01/14 00:36:17;;;;;;;4.03;0.98;;;21.90;63.40;;;;;;5032800;28;20052;-73
2023/01/14 00:38:43;;;;;;;1.45;1.25;;;21.80;63.20;;;;;;5032859;28;20403;-73
2023/01/14 00:41:12;;;;;;;1.98;1.10;;;21.70;63.30;;;;;;5031540;28;20021;-74
2023/01/14 00:43:39;;;;;;;1.98;1.05;;;21.60;63.60;;;;;;5031115;28;20045;-73
2023/01/14 00:46:06;;;;;;;3.25;1.30;;;21.50;63.80;;;;;;5015381;28;20092;-73
2023/01/14 00:48:33;;;;;;;3.60;1.30;;;21.50;64.20;;;;;;5032538;28;20021;-73
2023/01/14 00:50:59;;;;;;;1.42;1.10;;;21.40;64.20;;;;;;5031256;28;20041;-73
2023/01/14 00:53:25;;;;;;;1.23;0.90;;;21.40;64.40;;;;;;5031373;28;20033;-74
2023/01/14 00:55:52;;;;;;;1.10;0.90;;;21.30;64.20;;;;;;5032621;28;20029;-74
2023/01/14 00:58:17;;;;;;;2.33;1.10;;;21.20;64.50;;;;;;5032614;28;20032;-74
2023/01/14 01:00:43;;;;;;;10.60;1.20;;;21.20;64.80;;;;;;5030872;28;20025;-74
2023/01/14 01:03:09;;;;;;;2.35;1.00;;;21.10;65.00;;;;;;5063745;28;20478;-73
2023/01/14 01:05:36;;;;;;;4.80;0.95;;;21.10;65.10;;;;;;5031431;28;20045;-73
2023/01/14 01:08:05;;;;;;;2.20;1.08;;;21.10;65.30;;;;;;5030562;28;20033;-73
2023/01/14 01:10:35;;;;;;;2.00;1.20;;;21.00;65.40;;;;;;5029826;28;20022;-73
2023/01/14 01:13:01;;;;;;;1.65;1.10;;;20.90;65.60;;;;;;5030896;28;20029;-73
2023/01/14 01:15:27;;;;;;;1.40;0.98;;;20.90;65.70;;;;;;5032273;28;20021;-73
2023/01/14 01:17:53;;;;;;;1.55;0.80;;;20.90;66.10;;;;;;5031223;28;20511;-73
2023/01/14 01:20:19;;;;;;;2.50;1.10;;;20.80;66.20;;;;;;5031814;28;20210;-73
2023/01/14 01:22:44;;;;;;;1.73;0.90;;;20.80;66.40;;;;;;5032264;28;20030;-73
2023/01/14 01:25:10;;;;;;;2.83;1.30;;;20.70;66.50;;;;;;5032113;28;20021;-73
2023/01/14 01:27:35;;;;;;;1.95;1.08;;;20.70;66.60;;;;;;5032244;28;20072;-73
2023/01/14 01:30:01;;;;;;;2.80;1.00;;;20.60;66.60;;;;;;5031990;28;20025;-73
2023/01/14 01:32:27;;;;;;;4.47;1.25;;;20.60;66.80;;;;;;5032082;28;20033;-73
2023/01/14 01:34:53;;;;;;;2.60;0.90;;;20.50;66.80;;;;;;5014242;28;20025;-73
2023/01/14 01:37:18;;;;;;;2.88;0.90;;;20.50;67.00;;;;;;5022060;28;20022;-73
2023/01/14 01:39:45;;;;;;;3.38;1.20;;;20.40;67.10;;;;;;5011161;28;20033;-73
2023/01/14 01:42:13;;;;;;;2.78;0.90;;;20.40;67.10;;;;;;5010941;28;20026;-73
2023/01/14 01:44:39;;;;;;;1.77;1.00;;;20.40;67.10;;;;;;5011184;28;20488;-73
2023/01/14 01:47:05;;;;;;;3.35;1.08;;;20.30;67.10;;;;;;5012174;28;20108;-73
2023/01/14 01:49:33;;;;;;;1.55;1.00;;;20.30;67.20;;;;;;5010751;28;20071;-73
2023/01/14 01:51:59;;;;;;;1.63;0.93;;;20.20;67.20;;;;;;5011049;28;20089;-73
2023/01/14 01:54:29;;;;;;;2.05;0.98;;;20.20;67.30;;;;;;5011713;28;20115;-73
2023/01/14 01:56:54;;;;;;;3.38;1.17;;;20.20;67.30;;;;;;5014705;28;20105;-73
2023/01/14 01:59:23;;;;;;;1.83;0.95;;;20.10;67.30;;;;;;5014700;28;20117;-73
2023/01/14 02:01:48;;;;;;;2.53;1.00;;;20.20;67.50;;;;;;4998285;28;20069;-73
2023/01/14 02:04:14;;;;;;;1.25;0.90;;;20.10;67.60;;;;;;5014084;28;20085;-73
2023/01/14 02:06:40;;;;;;;2.17;1.00;;;20.10;67.60;;;;;;5014569;28;20105;-73
2023/01/14 02:09:05;;;;;;;0.73;0.70;;;20.10;67.60;;;;;;5014394;28;20045;-73
2023/01/14 02:11:40;;;;;;;1.17;1.08;;;20.00;67.70;;;;;;5014298;28;20057;-73
2023/01/14 02:14:47;;;;;;;1.40;0.90;;;20.00;67.90;;;;;;5015704;28;20050;-73
2023/01/14 02:17:59;;;;;;;2.08;0.98;;;19.90;67.90;;;;;;5013084;28;20029;-73
2023/01/14 02:20:37;;;;;;;2.08;1.10;;;19.90;68.00;;;;;;4973980;28;20129;-73
2023/01/14 02:23:27;;;;;;;1.98;0.90;;;19.80;68.20;;;;;;4974216;28;20461;-73
2023/01/14 02:26:14;;;;;;;3.50;0.98;;;19.80;68.20;;;;;;4974190;28;20070;-73
2023/01/14 02:28:50;;;;;;;1.80;1.00;;;19.80;68.40;;;;;;4976554;28;20034;-73
2023/01/14 02:31:35;;;;;;;2.05;0.98;;;19.80;68.60;;;;;;4993292;28;20048;-73
2023/01/14 02:34:02;;;;;;;2.45;0.90;;;19.70;68.60;;;;;;4993579;28;20038;-73
2023/01/14 02:37:02;;;;;;;1.38;0.93;;;19.70;68.70;;;;;;4994784;28;20030;-73
2023/01/14 02:39:45;;;;;;;3.30;1.10;;;19.70;68.70;;;;;;4935508;29;20032;-73
2023/01/14 02:45:13;;;;;;;3.22;1.08;;;19.60;68.90;;;;;;4934339;29;20047;-73
2023/01/14 02:47:39;;;;;;;3.22;1.10;;;19.60;69.10;;;;;;4935172;29;20135;-73
2023/01/14 02:50:05;;;;;;;1.73;0.95;;;19.60;69.10;;;;;;4932174;29;20455;-73
2023/01/14 02:52:31;;;;;;;1.35;0.95;;;19.60;69.10;;;;;;4881803;29;20036;-73
2023/01/14 02:54:58;;;;;;;3.42;1.10;;;19.50;69.20;;;;;;4897300;29;20040;-73
2023/01/14 02:57:51;;;;;;;4.93;1.00;;;19.50;69.20;;;;;;4884762;29;20055;-73
2023/01/14 03:00:30;;;;;;;5.38;1.20;;;19.50;69.20;;;;;;4915842;29;20036;-73
2023/01/14 03:03:17;;;;;;;3.15;1.10;;;19.40;69.40;;;;;;4915887;29;20052;-73
2023/01/14 03:05:56;;;;;;;3.33;1.08;;;19.40;69.40;;;;;;4915547;29;20028;-73
2023/01/14 03:08:38;;;;;;;1.67;0.80;;;19.40;69.50;;;;;;4916027;29;20036;-73
2023/01/14 03:11:06;;;;;;;3.17;1.10;;;19.40;69.50;;;;;;4916003;29;20079;-73
2023/01/14 03:13:39;;;;;;;1.25;0.90;;;19.40;69.70;;;;;;4975368;28;20092;-73
2023/01/14 03:16:28;;;;;;;3.03;1.10;;;19.30;69.70;;;;;;5029659;28;20018;-73
2023/01/14 03:18:57;;;;;;;1.58;0.80;;;19.30;69.70;;;;;;5016387;28;20045;-73
2023/01/14 03:21:27;;;;;;;2.83;1.20;;;19.20;69.90;;;;;;5029539;28;20030;-73
2023/01/14 03:24:03;;;;;;;3.95;1.20;;;19.30;69.90;;;;;;5029578;28;20125;-73
2023/01/14 03:26:31;;;;;;;1.63;0.85;;;19.20;70.00;;;;;;5028754;28;20022;-73
2023/01/14 03:28:56;;;;;;;2.35;0.90;;;19.20;70.10;;;;;;5032722;28;20025;-73
2023/01/14 03:31:25;;;;;;;3.33;1.10;;;19.20;70.20;;;;;;5032407;28;20535;-73
2023/01/14 03:34:01;;;;;;;1.63;0.80;;;19.20;70.30;;;;;;5032659;28;20034;-73
2023/01/14 03:36:28;;;;;;;2.58;1.05;;;19.10;70.20;;;;;;5030761;28;20024;-73
2023/01/14 03:39:00;;;;;;;2.10;0.95;;;19.10;70.30;;;;;;5012958;28;20049;-73
2023/01/14 03:44:24;;;;;;;2.83;0.80;;;19.10;70.40;;;;;;5012618;28;20044;-73
2023/01/14 03:46:49;;;;;;;2.88;1.33;;;19.10;70.50;;;;;;5012731;28;20018;-73
2023/01/14 03:49:15;;;;;;;1.00;0.70;;;19.10;70.50;;;;;;5012547;28;20036;-74
2023/01/14 03:51:50;;;;;;;2.00;1.00;;;19.00;70.50;;;;;;5013647;28;20026;-74
2023/01/14 03:54:23;;;;;;;2.47;1.08;;;19.00;70.60;;;;;;5012412;28;20018;-74
2023/01/14 03:57:10;;;;;;;2.15;0.98;;;19.00;70.70;;;;;;5012402;28;20080;-73
2023/01/14 04:00:01;;;;;;;2.65;0.82;;;19.00;70.60;;;;;;5012113;28;20060;-73
2023/01/14 04:02:28;;;;;;;2.42;0.90;;;19.00;70.70;;;;;;5013164;28;20488;-73
2023/01/14 04:04:53;;;;;;;2.05;0.90;;;18.90;70.80;;;;;;5012361;28;20038;-73
2023/01/14 04:07:19;;;;;;;2.10;0.65;;;18.90;70.80;;;;;;5012181;28;20014;-73
2023/01/14 04:09:45;;;;;;;1.33;0.77;;;18.90;70.90;;;;;;5013417;28;20028;-73
2023/01/14 04:12:11;;;;;;;2.25;1.00;;;18.90;70.80;;;;;;5013315;28;20488;-73
2023/01/14 04:17:21;;;;;;;3.58;1.00;;;18.80;70.90;;;;;;5012819;28;20077;-73
2023/01/14 04:19:47;;;;;;;3.00;0.85;;;18.80;70.90;;;;;;5013216;28;20030;-73
2023/01/14 04:22:12;;;;;;;1.25;0.70;;;18.80;71.00;;;;;;5013224;28;20026;-73
2023/01/14 04:24:38;;;;;;;2.28;0.80;;;18.80;72.00;;;;;;5013034;28;20109;-73
2023/01/14 04:27:04;;;;;;;1.90;0.85;;;18.80;71.00;;;;;;5012032;28;20033;-73
2023/01/14 04:29:29;;;;;;;2.00;1.00;;;18.80;71.20;;;;;;5021886;28;20025;-73
2023/01/14 04:31:55;;;;;;;2.03;0.85;;;18.70;71.10;;;;;;5031740;28;20048;-73
2023/01/14 04:34:21;;;;;;;2.72;1.00;;;18.70;71.10;;;;;;5031491;28;20041;-73
2023/01/14 04:36:46;;;;;;;2.00;0.77;;;18.70;71.20;;;;;;5027127;28;20032;-73
2023/01/14 04:39:12;;;;;;;1.10;0.70;;;18.70;71.20;;;;;;5013011;28;20075;-73
2023/01/14 04:44:21;;;;;;;1.90;0.80;;;18.70;71.20;;;;;;5012705;28;20036;-73
2023/01/14 04:46:47;;;;;;;1.35;0.70;;;18.70;71.40;;;;;;5011555;28;20026;-73
2023/01/14 04:49:13;;;;;;;2.03;0.80;;;18.60;71.40;;;;;;5012871;28;20022;-73
2023/01/14 04:51:38;;;;;;;1.45;0.60;;;18.60;71.40;;;;;;5012748;28;20029;-73
2023/01/14 04:54:04;;;;;;;1.77;0.80;;;18.60;71.50;;;;;;5012813;28;20034;-73
2023/01/14 04:56:29;;;;;;;1.85;1.02;;;18.60;71.40;;;;;;5012279;28;20397;-73
2023/01/14 04:59:01;;;;;;;1.70;0.70;;;18.60;71.50;;;;;;5011563;28;20030;-73
2023/01/14 05:01:26;;;;;;;5.25;0.93;;;18.60;71.50;;;;;;5012538;28;20176;-73
2023/01/14 05:03:54;;;;;;;1.58;0.90;;;18.50;71.60;;;;;;5011336;28;20527;-73
2023/01/14 05:06:20;;;;;;;1.48;0.95;;;18.50;71.50;;;;;;5011253;28;20183;-75
2023/01/14 05:08:47;;;;;;;1.98;0.80;;;18.50;71.70;;;;;;5011437;28;20022;-75
2023/01/14 05:11:13;;;;;;;1.88;0.80;;;18.50;71.70;;;;;;5012695;28;20029;-75
2023/01/14 05:13:38;;;;;;;1.20;0.82;;;18.50;71.70;;;;;;5011165;28;20022;-75
2023/01/14 05:16:05;;;;;;;1.70;0.70;;;18.50;71.80;;;;;;5011279;28;20028;-73
2023/01/14 05:18:30;;;;;;;1.52;0.90;;;18.50;71.80;;;;;;5011310;28;20403;-73
2023/01/14 05:20:56;;;;;;;0.90;0.50;;;18.40;71.90;;;;;;5012474;28;20112;-73
2023/01/14 05:23:21;;;;;;;1.23;0.73;;;18.40;71.90;;;;;;5012274;28;20034;-73
2023/01/14 05:25:47;;;;;;;2.03;0.90;;;18.50;72.00;;;;;;5012406;28;20031;-73
2023/01/14 05:28:14;;;;;;;2.83;0.80;;;18.40;71.90;;;;;;5011169;28;20026;-73
2023/01/14 05:30:40;;;;;;;1.10;0.65;;;18.40;72.00;;;;;;5032629;28;20670;-73
2023/01/14 05:33:05;;;;;;;4.00;0.80;;;18.40;72.00;;;;;;5034787;28;20108;-75
2023/01/14 05:35:32;;;;;;;3.20;0.70;;;18.40;72.20;;;;;;5034819;28;20492;-75
2023/01/14 05:37:57;;;;;;;1.17;0.90;;;18.40;72.20;;;;;;5020922;28;20034;-75
2023/01/14 05:40:23;;;;;;;3.00;0.85;;;18.30;72.20;;;;;;5014460;28;20029;-75
2023/01/14 05:45:41;;;;;;;1.77;0.80;;;18.30;72.20;;;;;;5016049;28;20041;-75
2023/01/14 05:48:08;;;;;;;1.58;0.88;;;18.30;72.30;;;;;;5016059;28;20026;-75
2023/01/14 05:50:34;;;;;;;2.00;0.63;;;18.30;72.40;;;;;;5014538;28;20436;-73
2023/01/14 05:53:00;;;;;;;1.52;0.93;;;18.20;72.30;;;;;;4998378;28;20030;-73
2023/01/14 05:55:25;;;;;;;2.60;1.00;;;18.20;72.40;;;;;;5014317;28;20109;-73
2023/01/14 05:57:51;;;;;;;1.95;0.60;;;18.20;72.40;;;;;;5016007;28;20107;-73
2023/01/14 06:08:30;;;;;;;1.05;0.60;;;18.20;72.70;;;;;;5014626;28;20386;-73
2023/01/14 06:10:55;;;;;;;1.10;0.70;;;18.20;72.90;;;;;;5014423;28;20030;-73
2023/01/14 06:13:24;;;;;;;0.88;0.57;;;18.20;72.80;;;;;;5015555;28;20108;-73
2023/01/14 06:15:55;;;;;;;1.35;0.82;;;18.10;72.80;;;;;;5014514;28;20030;-73
2023/01/14 06:18:22;;;;;;;1.52;0.70;;;18.10;72.80;;;;;;5015619;28;20061;-73
2023/01/14 06:20:51;;;;;;;1.50;0.80;;;18.10;72.90;;;;;;5015414;28;20432;-73
2023/01/14 06:23:17;;;;;;;1.50;0.68;;;18.10;72.90;;;;;;5014114;28;20029;-73
2023/01/14 06:25:44;;;;;;;1.00;0.63;;;18.10;73.10;;;;;;5013945;28;20030;-73
2023/01/14 06:28:10;;;;;;;0.88;0.60;;;18.10;73.00;;;;;;5015304;28;20029;-73
2023/01/14 06:30:35;;;;;;;1.25;0.70;;;18.10;73.00;;;;;;5032309;28;20025;-73
2023/01/14 06:33:01;;;;;;;1.38;0.70;;;18.10;74.10;;;;;;5035104;28;20025;-73
2023/01/14 06:35:27;;;;;;;0.75;0.50;;;18.00;73.00;;;;;;5034910;28;20022;-73
2023/01/14 06:37:52;;;;;;;1.15;0.60;;;18.00;73.00;;;;;;5020119;28;20030;-73
2023/01/14 06:40:19;;;;;;;1.50;0.70;;;18.00;73.00;;;;;;5013384;28;20018;-73
2023/01/14 06:42:45;;;;;;;3.45;0.80;;;18.00;73.00;;;;;;5027114;28;20021;-73
2023/01/14 06:45:11;;;;;;;1.27;0.73;;;18.00;73.10;;;;;;5048706;28;20166;-73
2023/01/14 06:47:36;;;;;;;1.75;0.70;;;18.00;73.20;;;;;;5033303;28;20025;-73
2023/01/14 06:50:05;;;;;;;2.20;0.88;;;18.00;73.20;;;;;;5033202;28;20016;-73
2023/01/14 06:52:31;;;;;;;2.95;0.80;;;18.00;73.30;;;;;;5064762;28;20500;-73
2023/01/14 06:54:58;;;;;;;0.90;0.70;;;18.00;73.30;;;;;;5065209;28;20048;-73
2023/01/14 06:57:24;;;;;;;1.60;0.73;;;18.00;73.40;;;;;;5064161;28;20030;-73
2023/01/14 06:59:50;;;;;;;4.38;0.80;;;17.90;73.40;;;;;;5024641;28;20144;-74
2023/01/14 07:02:16;;;;;;;1.05;0.63;;;18.00;73.40;;;;;;5032967;28;20033;-73
2023/01/14 07:04:43;;;;;;;1.08;0.50;;;17.90;73.30;;;;;;5033094;28;20501;-73
2023/01/14 07:07:09;;;;;;;2.53;0.60;;;17.90;73.50;;;;;;5034327;28;20032;-73
2023/01/14 07:09:34;;;;;;;0.75;0.60;;;17.90;73.40;;;;;;5034309;28;20021;-73
2023/01/14 07:12:00;;;;;;;3.38;0.80;;;17.90;73.30;;;;;;5034470;28;20399;-73
2023/01/14 07:14:26;;;;;;;2.15;0.45;;;17.90;73.40;;;;;;5034001;28;20100;-74
2023/01/14 07:16:51;;;;;;;2.25;0.80;;;17.90;73.40;;;;;;5034168;28;20399;-73
2023/01/14 07:19:17;;;;;;;0.90;0.60;;;17.90;73.40;;;;;;5034206;28;20476;-74
2023/01/14 07:21:42;;;;;;;1.63;0.70;;;17.90;73.40;;;;;;5033731;28;20037;-74
2023/01/14 07:24:09;;;;;;;1.92;0.63;;;17.90;73.50;;;;;;5032833;28;20017;-74
2023/01/14 07:26:35;;;;;;;1.75;0.90;;;17.80;73.50;;;;;;5034103;28;20025;-73
2023/01/14 07:29:00;;;;;;;1.23;0.65;;;17.80;73.50;;;;;;5033730;28;20017;-73
2023/01/14 07:31:26;;;;;;;2.53;0.98;;;17.80;73.60;;;;;;5034072;28;20029;-73
2023/01/14 07:33:52;;;;;;;0.60;0.50;;;17.80;73.60;;;;;;5033703;28;20036;-73
2023/01/14 07:36:17;;;;;;;1.88;0.60;;;17.80;73.60;;;;;;5032109;28;20035;-73
2023/01/14 07:38:43;;;;;;;2.85;0.90;;;17.90;73.60;;;;;;5013812;28;20037;-73
2023/01/14 07:41:09;;;;;;;1.17;0.47;;;17.80;73.60;;;;;;5012740;28;20040;-73
2023/01/14 07:43:35;;;;;;;1.95;0.60;;;17.80;73.60;;;;;;5012546;28;20033;-74
2023/01/14 07:46:01;;;;;;;3.80;0.60;;;17.80;73.60;;;;;;5013977;28;20026;-73
2023/01/14 07:48:30;;;;;;;1.38;0.55;;;17.80;73.70;;;;;;5012687;28;20072;-73
2023/01/14 07:50:56;;;;;;;2.33;0.55;;;17.80;73.70;;;;;;5013438;28;20076;-73
2023/01/14 07:53:21;;;;;;;2.25;0.77;;;17.80;73.70;;;;;;5012824;28;20022;-73
2023/01/14 07:55:47;;;;;;;1.15;0.50;;;17.70;73.70;;;;;;5012436;28;20030;-73
2023/01/14 07:58:14;;;;;;;0.95;0.40;;;17.80;73.90;;;;;;5012494;28;20108;-73
2023/01/14 08:00:40;;;;;;;1.10;0.50;;;17.80;73.70;;;;;;5013663;28;20030;-73
2023/01/14 08:03:05;;;;;;;1.13;0.50;;;17.70;73.80;;;;;;5013192;28;20057;-73
2023/01/14 08:05:33;;;;;;;1.58;0.65;;;17.70;73.80;;;;;;5012044;28;20030;-73
2023/01/14 08:07:59;;;;;;;2.70;0.40;;;17.70;73.80;;;;;;5013653;28;20032;-73
2023/01/14 08:10:24;;;;;;;0.55;0.40;;;17.70;74.00;;;;;;5012314;28;20022;-73
2023/01/14 08:12:50;;;;;;;1.10;0.57;;;17.70;73.90;;;;;;5013270;28;20030;-73
2023/01/14 08:15:16;;;;;;;0.77;0.43;;;17.70;74.00;;;;;;5012224;28;20022;-73
2023/01/14 08:17:41;;;;;;;1.25;0.70;;;17.70;73.90;;;;;;5011924;28;20029;-73
2023/01/14 08:20:09;;;;;;;2.38;0.60;;;17.70;73.90;;;;;;5013009;28;20025;-73
2023/01/14 08:22:35;;;;;;;1.45;0.63;;;17.60;73.90;;;;;;5012054;28;20029;-73
2023/01/14 08:25:00;;;;;;;0.85;0.50;;;17.60;73.90;;;;;;5011998;28;20385;-73
2023/01/14 08:27:27;;;;;;;0.90;0.50;;;17.60;73.80;;;;;;5011881;28;20033;-73
2023/01/14 08:29:52;;;;;;;1.88;0.65;;;17.70;74.00;;;;;;5024248;28;20036;-73
2023/01/14 08:32:18;;;;;;;0.95;0.50;;;17.70;74.00;;;;;;5033004;28;20383;-73
2023/01/14 08:34:44;;;;;;;1.10;0.60;;;17.60;74.00;;;;;;5031278;28;20546;-73
2023/01/14 08:37:09;;;;;;;3.10;0.43;;;17.60;74.00;;;;;;5024455;28;20029;-73
2023/01/14 08:39:35;;;;;;;2.35;0.55;;;17.60;74.00;;;;;;5011735;28;20424;-73
2023/01/14 08:42:00;;;;;;;0.50;0.47;;;17.60;74.00;;;;;;5013230;28;20026;-73
2023/01/14 08:44:26;;;;;;;1.83;0.55;;;17.60;74.10;;;;;;5013016;28;20057;-73
2023/01/14 08:46:52;;;;;;;1.00;0.60;;;17.60;74.10;;;;;;5012821;28;20030;-73
2023/01/14 08:49:17;;;;;;;2.05;0.75;;;17.60;74.00;;;;;;5012845;28;20026;-73
2023/01/14 08:51:43;;;;;;;1.75;0.43;;;17.60;74.10;;;;;;5012656;28;20034;-73
2023/01/14 08:54:09;;;;;;;2.00;0.60;;;17.60;74.20;;;;;;5011512;28;20072;-73
2023/01/14 08:56:34;;;;;;;1.92;0.40;;;17.50;74.20;;;;;;5011419;28;20034;-73
2023/01/14 08:59:01;;;;;;;1.00;0.50;;;17.50;74.20;;;;;;5012623;28;20033;-73
2023/01/14 09:01:26;;;;;;;1.27;0.70;;;17.50;74.20;;;;;;5011536;28;20045;-73
2023/01/14 09:03:57;;;;;;;1.67;0.47;;;17.50;74.20;;;;;;5011890;28;20530;-73
2023/01/14 09:06:22;;;;;;;5.47;0.65;;;17.50;74.20;;;;;;5012618;28;20496;-73
2023/01/14 09:17:11;;;;;;;0.60;0.40;;;17.50;74.30;;;;;;5011500;28;20416;-73
2023/01/14 09:19:40;;;;;;;1.85;0.70;;;17.40;74.20;;;;;;5011302;28;20374;-73
2023/01/14 09:22:06;;;;;;;1.63;0.90;;;17.50;74.20;;;;;;5011224;28;20092;-73
2023/01/14 09:24:32;;;;;;;0.47;0.30;;;17.50;74.30;;;;;;5011354;28;20427;-73
2023/01/14 09:26:58;;;;;;;0.82;0.47;;;17.40;74.20;;;;;;5012275;28;20278;-73
2023/01/14 09:29:23;;;;;;;0.25;0.20;;;17.40;74.30;;;;;;5020680;28;20057;-73
2023/01/14 09:31:49;;;;;;;1.17;0.40;;;17.40;74.40;;;;;;5030737;28;20403;-73
2023/01/14 09:34:15;;;;;;;0.90;0.32;;;17.40;74.50;;;;;;5032049;28;20024;-73
2023/01/14 09:36:41;;;;;;;0.90;0.50;;;17.40;74.40;;;;;;5028617;28;20216;-73
2023/01/14 09:39:06;;;;;;;0.82;0.40;;;17.40;74.50;;;;;;5011026;28;20103;-73
2023/01/14 09:41:34;;;;;;;0.52;0.25;;;17.40;74.50;;;;;;5012300;28;20399;-73
2023/01/14 09:44:00;;;;;;;0.40;0.30;;;17.40;74.50;;;;;;5011146;28;20022;-73
2023/01/14 09:46:26;;;;;;;1.88;0.40;;;17.40;74.60;;;;;;5010728;28;20389;-73
2023/01/14 09:48:52;;;;;;;1.85;0.50;;;17.40;74.70;;;;;;5011023;28;20396;-73
2023/01/14 09:51:43;;;;;;;0.85;0.55;;;17.40;74.50;;;;;;5011060;28;20018;-74
2023/01/14 09:54:26;;;;;;;0.90;0.60;;;17.40;74.70;;;;;;5012222;28;20022;-75
2023/01/14 09:57:12;;;;;;;0.60;0.40;;;17.30;74.70;;;;;;5010910;28;20034;-75
2023/01/14 09:59:52;;;;;;;1.02;0.38;;;17.30;74.60;;;;;;5011303;28;20053;-73
2023/01/14 10:02:19;;;;;;;0.40;0.30;;;17.30;74.60;;;;;;5011796;28;20536;-73
2023/01/14 10:04:59;;;;;;;0.60;0.28;;;17.30;74.80;;;;;;5010749;28;20092;-73
2023/01/14 10:07:25;;;;;;;0.75;0.40;;;17.30;74.70;;;;;;5010705;28;20018;-73
2023/01/14 10:09:56;;;;;;;0.40;0.40;;;17.30;74.70;;;;;;5010931;28;20026;-73
2023/01/14 10:12:36;;;;;;;0.55;0.32;;;17.30;74.70;;;;;;5010840;28;20408;-73
2023/01/14 10:15:07;;;;;;;1.65;0.28;;;17.30;74.70;;;;;;5010726;28;20034;-73
2023/01/14 10:17:36;;;;;;;1.85;0.30;;;17.30;74.80;;;;;;5015411;28;20076;-73
2023/01/14 10:20:06;;;;;;;2.38;0.40;;;17.30;74.80;;;;;;5014296;28;20025;-73
2023/01/14 10:22:49;;;;;;;1.15;0.30;;;17.30;74.80;;;;;;5014283;28;20034;-73
2023/01/14 10:25:20;;;;;;;0.32;0.30;;;17.20;74.70;;;;;;5014050;28;20092;-73
2023/01/14 10:27:48;;;;;;;6.53;0.40;;;17.30;74.80;;;;;;5013997;28;20041;-73
2023/01/14 10:30:19;;;;;;;0.70;0.47;;;17.20;74.90;;;;;;5029237;28;20104;-73
2023/01/14 10:32:46;;;;;;;0.30;0.30;;;17.20;74.90;;;;;;5035036;28;20039;-73
2023/01/14 10:35:13;;;;;;;0.40;0.32;;;17.30;74.90;;;;;;5033991;28;20049;-73
2023/01/14 10:37:38;;;;;;;0.60;0.47;;;17.30;74.80;;;;;;5022520;28;20026;-74
2023/01/14 10:40:05;;;;;;;1.50;0.20;;;17.20;74.90;;;;;;5013737;28;20029;-73
2023/01/14 10:42:30;;;;;;;0.50;0.30;;;17.20;75.00;;;;;;5013775;28;20034;-73
2023/01/14 10:44:56;;;;;;;0.70;0.32;;;17.20;74.90;;;;;;5013476;28;20026;-73
2023/01/14 10:47:22;;;;;;;0.60;0.30;;;17.20;74.90;;;;;;5013927;28;20072;-73
2023/01/14 10:49:53;;;;;;;0.90;0.50;;;17.20;74.90;;;;;;5013892;28;20064;-73
2023/01/14 10:52:24;;;;;;;1.52;0.40;;;17.20;74.90;;;;;;5013542;28;20025;-73
2023/01/14 10:55:19;;;;;;;0.30;0.30;;;17.20;74.90;;;;;;5014883;28;20029;-73
2023/01/14 10:58:12;;;;;;;2.28;0.30;;;17.20;74.90;;;;;;5013978;28;20034;-73
2023/01/14 11:00:47;;;;;;;0.65;0.35;;;17.20;74.80;;;;;;5009129;28;20037;-73
2023/01/14 11:03:22;;;;;;;0.85;0.40;;;17.20;74.90;;;;;;5013272;28;20050;-73
2023/01/14 11:05:59;;;;;;;0.47;0.40;;;17.10;74.80;;;;;;5013264;28;20022;-73
2023/01/14 11:08:51;;;;;;;0.43;0.30;;;17.10;74.80;;;;;;5013490;28;20057;-73
2023/01/14 11:11:20;;;;;;;1.13;0.85;;;17.20;74.80;;;;;;5013350;28;20109;-73
2023/01/14 11:13:50;;;;;;;1.55;0.43;;;17.10;74.80;;;;;;5013091;28;20080;-73
2023/01/14 11:16:25;;;;;;;0.57;0.45;;;17.10;74.90;;;;;;5013293;28;20026;-73
2023/01/14 11:19:00;;;;;;;0.75;0.30;;;17.10;74.80;;;;;;5014306;28;20033;-73
2023/01/14 11:21:26;;;;;;;0.30;0.30;;;17.10;74.90;;;;;;5014364;28;20021;-73
2023/01/14 11:23:56;;;;;;;0.30;0.20;;;17.10;74.80;;;;;;5013138;28;20037;-73
2023/01/14 11:26:31;;;;;;;0.85;0.32;;;17.10;75.00;;;;;;5012989;28;20029;-73
2023/01/14 11:29:23;;;;;;;0.57;0.30;;;17.10;74.90;;;;;;5017364;28;20032;-73
2023/01/14 11:31:50;;;;;;;0.50;0.28;;;17.10;74.90;;;;;;5032921;28;20032;-73
2023/01/14 11:34:28;;;;;;;0.20;0.20;;;17.10;74.80;;;;;;5032646;28;20036;-75
2023/01/14 11:37:09;;;;;;;0.65;0.30;;;17.10;75.00;;;;;;5028511;28;20018;-75
2023/01/14 11:39:38;;;;;;;1.23;0.35;;;17.00;74.90;;;;;;5012668;28;20400;-73
2023/01/14 11:42:26;;;;;;;0.20;0.17;;;17.00;75.10;;;;;;5012566;28;20401;-73
2023/01/14 11:45:14;;;;;;;0.22;0.20;;;17.00;75.20;;;;;;5012523;28;20408;-73
2023/01/14 11:47:53;;;;;;;0.85;0.38;;;17.00;75.30;;;;;;5013824;28;20018;-73
2023/01/14 11:50:28;;;;;;;0.40;0.30;;;17.00;75.20;;;;;;5012653;28;20072;-73
2023/01/14 11:52:53;;;;;;;0.20;0.17;;;17.00;75.30;;;;;;5013646;28;20025;-73
2023/01/14 11:55:19;;;;;;;0.57;0.25;;;17.00;75.30;;;;;;5013759;28;20029;-73
2023/01/14 11:57:45;;;;;;;0.82;0.43;;;17.00;75.40;;;;;;5018495;28;20036;-73
2023/01/14 12:00:12;;;;;;;0.50;0.40;;;17.00;75.50;;;;;;5031954;28;20113;-73
2023/01/14 12:02:44;;;;;;;0.20;0.20;;;17.00;75.40;;;;;;5032131;28;20048;-73
2023/01/14 12:05:13;;;;;;;0.80;0.30;;;17.00;75.40;;;;;;5032016;28;20028;-73
2023/01/14 12:07:46;;;;;;;0.10;0.10;;;17.00;75.50;;;;;;5031958;28;20017;-73
2023/01/14 12:10:16;;;;;;;0.50;0.22;;;17.00;75.50;;;;;;5031914;28;20078;-73
2023/01/14 12:18:42;;;;;;;0.93;0.30;;;17.00;75.60;;;;;;5032479;28;20047;-73
2023/01/14 12:21:08;;;;;;;0.17;0.17;;;17.00;75.60;;;;;;5031815;28;20359;-73
2023/01/14 12:23:40;;;;;;;0.45;0.30;;;16.90;75.70;;;;;;5032949;28;20547;-73
2023/01/14 12:26:12;;;;;;;0.40;0.28;;;17.00;75.80;;;;;;5015015;28;20032;-73
2023/01/14 12:28:39;;;;;;;0.10;0.10;;;17.00;76.00;;;;;;5031535;28;20026;-73
2023/01/14 12:31:33;;;;;;;0.38;0.30;;;16.90;75.80;;;;;;5031496;28;20458;-74
2023/01/14 12:34:39;;;;;;;0.28;0.28;;;16.90;75.90;;;;;;5031956;28;20091;-74
2023/01/14 12:37:18;;;;;;;0.30;0.30;;;16.90;75.80;;;;;;5020793;28;20034;-73
2023/01/14 12:45:50;;;;;;;1.45;0.50;;;16.90;74.60;;;;;;5011848;28;20037;-73
2023/01/14 12:48:23;;;;;;;1.75;0.45;;;16.80;74.30;;;;;;5012581;28;20038;-73
2023/01/14 12:50:56;;;;;;;1.55;0.50;;;16.70;73.80;;;;;;5011680;28;20026;-73
2023/01/14 12:53:28;;;;;;;2.50;0.40;;;16.70;73.80;;;;;;5011466;28;20029;-73
2023/01/14 12:55:54;;;;;;;3.30;0.50;;;16.60;73.40;;;;;;5011551;28;20049;-73
2023/01/14 12:58:21;;;;;;;3.95;0.52;;;16.60;73.20;;;;;;5023386;28;20025;-72
2023/01/14 13:00:52;;;;;;;2.85;0.68;;;16.50;73.20;;;;;;5031271;28;20031;-73
2023/01/14 13:03:21;;;;;;;2.00;0.68;;;16.50;73.10;;;;;;5030804;28;20045;-73
2023/01/14 13:05:47;;;;;;;1.63;0.68;;;16.40;73.00;;;;;;5031145;28;20316;-74
2023/01/14 13:08:21;;;;;;;3.25;0.68;;;16.40;72.90;;;;;;5032003;28;20449;-72
2023/01/14 13:10:56;;;;;;;7.43;1.05;;;16.30;72.90;;;;;;5032092;28;20021;-72
2023/01/14 13:13:23;;;;;;;4.18;1.00;;;16.30;73.00;;;;;;5030171;28;20022;-74
2023/01/14 13:15:49;;;;;;;2.42;0.50;;;16.40;72.90;;;;;;5046021;28;20037;-77
2023/01/14 13:18:33;;;;;;;0.90;0.40;;;16.50;72.70;;;;;;5037959;28;20072;-76
2023/01/14 13:20:59;;;;;;;5.53;0.60;;;16.70;72.50;;;;;;5033291;28;20057;-77
2023/01/14 13:23:43;;;;;;;2.05;0.68;;;16.90;72.00;;;;;;5051221;28;20025;-79
2023/01/14 13:26:19;;;;;;;4.18;1.05;;;17.00;71.90;;;;;;5052557;28;20033;-78
2023/01/14 13:29:15;;;;;;;2.50;0.93;;;17.10;71.50;;;;;;5048150;28;20018;-78
2023/01/14 13:31:41;;;;;;;2.60;0.60;;;17.20;71.20;;;;;;5051194;28;20029;-78
2023/01/14 13:34:32;;;;;;;1.40;0.50;;;17.30;71.00;;;;;;5051358;28;20070;-78
2023/01/14 13:37:04;;;;;;;3.28;0.75;;;17.40;71.30;;;;;;5045460;28;20021;-77
2023/01/14 13:39:30;;;;;;;0.95;0.50;;;17.50;70.50;;;;;;5032438;28;20029;-77
2023/01/14 13:42:00;;;;;;;1.55;0.50;;;17.60;70.40;;;;;;5015027;28;20036;-78
2023/01/14 13:44:27;;;;;;;1.58;0.50;;;17.70;70.20;;;;;;5031359;28;20021;-77